Time;durP1;ratioP1;P1;durP2;ratioP2;P2;SDS_P1;SDS_P2;PMS_P1;PMS_P2;Temp;Humidity;BMP_temperature;BMP_pressure;BME280_temperature;BME280_humidity;BME280_pressure;Samples;Min_cycle;Max_cycle;Signal;HPM_P1;HPM_P2
2022/09/26 00:02:13;;;;;;;;;;;;;;;16.51;60.08;99077.63;4360585;32;35006;-94
2022/09/26 00:04:38;;;;;;;;;;;;;;;16.57;60.09;99068.53;4360783;32;25969;-94
2022/09/26 00:07:03;;;;;;;;;;;;;;;16.52;60.09;99073.22;4361112;32;19972;-93
2022/09/26 00:09:28;;;;;;;;;;;;;;;16.53;60.08;99064.41;4360412;32;35918;-93
2022/09/26 00:11:54;;;;;;;;;;;;;;;16.54;60.08;99071.34;4360651;32;19995;-94
2022/09/26 00:14:20;;;;;;;;;;;;;;;16.48;60.08;99061.25;4360953;32;19992;-93
2022/09/26 00:16:45;;;;;;;;;;;;;;;16.45;60.08;99064.06;4361081;32;20308;-93
2022/09/26 00:19:11;;;;;;;;;;;;;;;16.45;60.08;99062.28;4360068;32;38066;-94
2022/09/26 00:21:36;;;;;;;;;;;;;;;16.52;60.08;99070.59;4360664;32;20030;-92
2022/09/26 00:24:01;;;;;;;;;;;;;;;16.44;60.08;99070.28;4360725;32;20037;-93
2022/09/26 00:26:27;;;;;;;;;;;;;;;16.44;60.08;99070.28;4360401;32;19980;-94
2022/09/26 00:28:53;;;;;;;;;;;;;;;16.39;60.08;99061.88;4360355;32;19987;-94
2022/09/26 00:31:19;;;;;;;;;;;;;;;16.46;60.08;99048.22;4361013;32;19980;-94
2022/09/26 00:33:44;;;;;;;;;;;;;;;16.58;60.09;99043.94;4360752;32;20745;-95
2022/09/26 00:36:09;;;;;;;;;;;;;;;16.66;60.09;99039.03;4360140;32;27658;-93
2022/09/26 00:38:34;;;;;;;;;;;;;;;16.60;60.08;99042.03;4360697;32;20035;-93
2022/09/26 00:41:00;;;;;;;;;;;;;;;16.45;60.08;99032.56;4360238;32;19979;-91
2022/09/26 00:43:28;;;;;;;;;;;;;;;16.50;60.08;99040.97;4347994;33;20328;-91
2022/09/26 00:45:54;;;;;;;;;;;;;;;16.50;60.08;99039.19;4350349;33;20020;-92
2022/09/26 00:48:19;;;;;;;;;;;;;;;16.47;60.08;99041.19;4361726;32;20043;-93
2022/09/26 00:50:44;;;;;;;;;;;;;;;16.48;60.08;99037.59;4361721;32;25771;-92
2022/09/26 00:53:11;;;;;;;;;;;;;;;16.57;60.09;99026.50;4361383;32;27407;-93
2022/09/26 00:55:38;;;;;;;;;;;;;;;16.52;60.08;99015.44;4362024;32;20067;-92
2022/09/26 00:58:24;;;;;;;;;;;;;;;16.52;60.08;99018.06;4362153;32;20018;-90
2022/09/26 01:00:49;;;;;;;;;;;;;;;16.55;60.09;99015.22;4338065;33;20000;-94
2022/09/26 01:03:15;;;;;;;;;;;;;;;16.62;60.08;99011.25;4363099;32;20031;-94
2022/09/26 01:05:40;;;;;;;;;;;;;;;16.63;60.09;99012.94;4363186;32;20645;-94
2022/09/26 01:08:05;;;;;;;;;;;;;;;16.53;60.08;99017.94;4363013;32;19984;-95
2022/09/26 01:10:31;;;;;;;;;;;;;;;16.47;60.08;99012.28;4362430;32;26188;-94
2022/09/26 01:12:56;;;;;;;;;;;;;;;16.60;60.08;99013.13;4363052;32;20012;-94
2022/09/26 01:15:21;;;;;;;;;;;;;;;16.53;60.08;99017.94;4362611;32;20011;-92
2022/09/26 01:17:47;;;;;;;;;;;;;;;16.56;60.09;99006.38;4363055;32;20348;-93
2022/09/26 01:20:21;;;;;;;;;;;;;;;16.52;60.08;99010.16;4362516;32;20301;-94
2022/09/26 01:22:49;;;;;;;;;;;;;;;16.60;60.09;99001.78;4351738;33;19979;-95
2022/09/26 01:25:19;;;;;;;;;;;;;;;16.62;60.08;99000.72;4351767;33;19976;-94
2022/09/26 01:27:46;;;;;;;;;;;;;;;16.66;60.09;98989.09;4350784;33;19987;-94
2022/09/26 01:30:27;;;;;;;;;;;;;;;16.63;60.09;98999.78;4350656;33;20074;-94
2022/09/26 01:32:58;;;;;;;;;;;;;;;16.64;60.10;98998.84;4362122;32;20021;-94
2022/09/26 01:35:23;;;;;;;;;;;;;;;16.56;60.09;98988.00;4351153;33;20676;-92
2022/09/26 01:38:07;;;;;;;;;;;;;;;16.72;60.10;98991.28;4361595;32;20042;-92
2022/09/26 01:40:39;;;;;;;;;;;;;;;16.69;60.09;98981.00;4351261;33;20371;-93
2022/09/26 01:43:23;;;;;;;;;;;;;;;16.55;60.09;98979.28;4362362;32;20001;-94
2022/09/26 01:45:48;;;;;;;;;;;;;;;16.56;60.09;98983.62;4350781;33;19976;-92
2022/09/26 01:48:17;;;;;;;;;;;;;;;16.62;60.08;98995.47;4351337;33;20059;-93
2022/09/26 01:50:44;;;;;;;;;;;;;;;16.66;60.09;98981.22;4362129;32;20051;-92
2022/09/26 01:53:20;;;;;;;;;;;;;;;16.65;60.09;98984.75;4362658;32;19971;-93
2022/09/26 01:55:47;;;;;;;;;;;;;;;16.71;60.10;98984.34;4361614;32;19998;-92
2022/09/26 01:58:24;;;;;;;;;;;;;;;16.70;60.09;98966.06;4362354;32;20005;-92
2022/09/26 02:00:49;;;;;;;;;;;;;;;16.65;60.10;98966.38;4350042;33;20007;-92
2022/09/26 02:03:16;;;;;;;;;;;;;;;16.71;60.10;98957.22;4361466;32;19967;-93
2022/09/26 02:05:51;;;;;;;;;;;;;;;16.67;60.09;98961.03;4361447;32;19976;-92
2022/09/26 02:08:23;;;;;;;;;;;;;;;16.69;60.09;98956.50;4361804;32;19995;-93
2022/09/26 02:10:49;;;;;;;;;;;;;;;16.58;60.09;98963.31;4361823;32;19991;-93
2022/09/26 02:13:15;;;;;;;;;;;;;;;16.67;60.09;98959.25;4360838;32;20011;-90
2022/09/26 02:15:40;;;;;;;;;;;;;;;16.63;60.09;98955.13;4361361;32;19967;-91
2022/09/26 02:18:26;;;;;;;;;;;;;;;16.66;60.09;98957.56;4360424;32;23553;-91
2022/09/26 02:20:54;;;;;;;;;;;;;;;16.64;60.09;98950.69;4336222;33;20010;-92
2022/09/26 02:23:19;;;;;;;;;;;;;;;16.64;60.09;98961.22;4361046;32;19979;-94
2022/09/26 02:25:44;;;;;;;;;;;;;;;16.70;60.09;98966.06;4363907;32;28558;-93
2022/09/26 02:28:10;;;;;;;;;;;;;;;16.70;60.10;98982.66;4375828;32;23000;-92
2022/09/26 02:30:35;;;;;;;;;;;;;;;16.70;60.10;98990.56;4376347;32;19972;-88
2022/09/26 02:33:00;;;;;;;;;;;;;;;16.52;60.08;98994.41;4373482;32;19989;-93
2022/09/26 02:38:10;;;;;;;;;;;;;;;16.56;60.09;98982.75;4360738;32;20005;-93
2022/09/26 02:40:55;;;;;;;;;;;;;;;16.57;60.08;98963.44;4362720;32;20003;-91
2022/09/26 02:43:37;;;;;;;;;;;;;;;16.63;60.09;98949.87;4350183;33;20344;-92
2022/09/26 02:46:11;;;;;;;;;;;;;;;16.65;60.09;98947.13;4361556;32;20003;-92
2022/09/26 02:48:36;;;;;;;;;;;;;;;16.58;60.09;98951.97;4349474;33;20015;-94
2022/09/26 02:51:11;;;;;;;;;;;;;;;16.62;60.08;98949.97;4350755;33;19979;-93
2022/09/26 02:53:39;;;;;;;;;;;;;;;16.51;60.08;98946.28;4361325;32;19990;-93
2022/09/26 02:56:16;;;;;;;;;;;;;;;16.44;60.07;98960.78;4361221;32;19951;-93
2022/09/26 02:58:44;;;;;;;;;;;;;;;16.53;60.08;98962.78;4361318;32;20362;-92
2022/09/26 03:01:14;;;;;;;;;;;;;;;16.31;60.07;98969.59;4349801;33;20001;-91
2022/09/26 03:03:39;;;;;;;;;;;;;;;16.30;60.07;98962.66;4360905;32;20743;-92
2022/09/26 03:06:05;;;;;;;;;;;;;;;16.44;60.08;98945.03;4348564;33;19987;-91
2022/09/26 03:08:32;;;;;;;;;;;;;;;16.41;60.08;98949.66;4360221;32;19987;-91
2022/09/26 03:10:58;;;;;;;;;;;;;;;16.42;60.08;98951.34;4361176;32;19995;-91
2022/09/26 03:13:24;;;;;;;;;;;;;;;16.44;60.08;98945.03;4348921;33;20340;-91
2022/09/26 03:15:52;;;;;;;;;;;;;;;16.44;60.08;98937.16;4360660;32;20066;-92
2022/09/26 03:18:18;;;;;;;;;;;;;;;16.46;60.08;98940.50;4360478;32;19996;-92
2022/09/26 03:20:44;;;;;;;;;;;;;;;16.49;60.08;98939.44;4347908;33;19995;-91
2022/09/26 03:23:09;;;;;;;;;;;;;;;16.50;60.08;98935.88;4360470;32;20030;-91
2022/09/26 03:25:34;;;;;;;;;;;;;;;16.49;60.08;98935.03;4360126;32;22855;-91
2022/09/26 03:28:01;;;;;;;;;;;;;;;16.38;60.07;98929.69;4360637;32;20230;-92
2022/09/26 03:30:26;;;;;;;;;;;;;;;16.47;60.08;98929.06;4360633;32;20009;-91
2022/09/26 03:32:51;;;;;;;;;;;;;;;16.49;60.08;98918.44;4360529;32;19979;-92
2022/09/26 03:35:17;;;;;;;;;;;;;;;16.47;60.09;98912.47;4360004;32;27025;-91
2022/09/26 03:37:42;;;;;;;;;;;;;;;16.56;60.08;98903.91;4349027;33;20317;-92
2022/09/26 03:40:08;;;;;;;;;;;;;;;16.55;60.09;98900.47;4360837;32;25483;-93
2022/09/26 03:42:33;;;;;;;;;;;;;;;16.46;60.08;98900.28;4361379;32;20027;-93
2022/09/26 03:44:59;;;;;;;;;;;;;;;16.41;60.08;98899.75;4361987;32;19980;-94
2022/09/26 03:47:24;;;;;;;;;;;;;;;16.44;60.08;98889.03;4362085;32;19991;-93
2022/09/26 03:49:49;;;;;;;;;;;;;;;16.39;60.07;98894.63;4350395;33;24958;-94
2022/09/26 03:52:14;;;;;;;;;;;;;;;16.48;60.08;98885.25;4361048;32;30919;-93
2022/09/26 03:54:40;;;;;;;;;;;;;;;16.54;60.08;98877.75;4361045;32;24687;-94
2022/09/26 03:57:05;;;;;;;;;;;;;;;16.55;60.08;98873.34;4360848;32;29693;-93
2022/09/26 03:59:30;;;;;;;;;;;;;;;16.37;60.07;98869.41;4361042;32;19983;-92
2022/09/26 04:01:55;;;;;;;;;;;;;;;16.48;60.08;98870.31;4334117;32;864365;-94
2022/09/26 04:04:21;;;;;;;;;;;;;;;16.55;60.09;98866.31;4349742;33;21107;-93
2022/09/26 04:06:46;;;;;;;;;;;;;;;16.55;60.09;98866.31;4347582;33;20003;-95
2022/09/26 04:09:11;;;;;;;;;;;;;;;16.54;60.08;98853.28;4361958;32;19991;-96
2022/09/26 04:11:36;;;;;;;;;;;;;;;16.54;60.08;98861.16;4360943;32;20372;-92
2022/09/26 04:14:02;;;;;;;;;;;;;;;16.60;60.09;98857.28;4359840;32;20011;-91
2022/09/26 04:16:28;;;;;;;;;;;;;;;16.52;60.08;98852.53;4360965;32;20003;-96
2022/09/26 04:18:55;;;;;;;;;;;;;;;16.51;60.08;98856.13;4351172;33;19968;-95
2022/09/26 04:21:20;;;;;;;;;;;;;;;16.42;60.08;98856.78;4363771;32;20669;-95
2022/09/26 04:23:45;;;;;;;;;;;;;;;16.46;60.08;98861.72;4362795;32;34083;-96
2022/09/26 04:26:12;;;;;;;;;;;;;;;16.46;60.08;98856.44;4363888;32;19991;-95
2022/09/26 04:28:37;;;;;;;;;;;;;;;16.51;60.08;98856.13;4352641;33;20058;-96
2022/09/26 04:31:02;;;;;;;;;;;;;;;16.44;60.08;98853.09;4363631;32;19983;-96
2022/09/26 04:33:28;;;;;;;;;;;;;;;16.40;60.08;98858.69;4361801;32;19983;-90
2022/09/26 04:35:53;;;;;;;;;;;;;;;16.43;60.08;98859.28;4350029;33;20062;-90
2022/09/26 04:38:19;;;;;;;;;;;;;;;16.55;60.09;98857.59;4361021;32;19995;-90
2022/09/26 04:40:44;;;;;;;;;;;;;;;16.71;60.10;98852.97;4360991;32;19987;-89
2022/09/26 04:43:09;;;;;;;;;;;;;;;16.56;60.09;98844.38;4360885;32;20317;-88
2022/09/26 04:45:34;;;;;;;;;;;;;;;16.72;60.10;98852.00;4360739;32;19995;-89
2022/09/26 04:48:00;;;;;;;;;;;;;;;16.72;60.10;98856.44;4349866;33;21377;-89
2022/09/26 04:50:25;;;;;;;;;;;;;;;16.55;60.09;98863.66;4361143;32;20028;-89
2022/09/26 04:52:50;;;;;;;;;;;;;;;16.54;60.08;98866.41;4361218;32;20048;-89
2022/09/26 04:55:15;;;;;;;;;;;;;;;16.46;60.08;98876.62;4349491;33;24769;-88
2022/09/26 04:57:41;;;;;;;;;;;;;;;16.27;60.07;98877.91;4360778;32;22581;-89
2022/09/26 05:00:06;;;;;;;;;;;;;;;16.10;60.06;98874.78;4361055;32;19984;-89
2022/09/26 05:02:32;;;;;;;;;;;;;;;16.39;60.07;98865.72;4360717;32;19979;-89
2022/09/26 05:04:58;;;;;;;;;;;;;;;16.57;60.09;98863.59;4360824;32;19999;-89
2022/09/26 05:07:24;;;;;;;;;;;;;;;16.37;60.07;98866.78;4360662;32;20189;-89
2022/09/26 05:09:49;;;;;;;;;;;;;;;16.27;60.07;98866.56;4360982;32;20381;-91
2022/09/26 05:12:16;;;;;;;;;;;;;;;16.25;60.07;98865.81;4360175;32;33794;-90
2022/09/26 05:14:43;;;;;;;;;;;;;;;16.39;60.07;98868.34;4349814;33;20048;-91
2022/09/26 05:17:10;;;;;;;;;;;;;;;16.44;60.08;98865.37;4350804;33;20304;-89
2022/09/26 05:19:35;;;;;;;;;;;;;;;16.56;60.09;98869.78;4362168;32;20032;-90
2022/09/26 05:22:00;;;;;;;;;;;;;;;16.44;60.08;98862.75;4354278;32;21988;-88
2022/09/26 05:27:09;;;;;;;;;;;;;;;16.44;60.07;98866.22;4373275;32;20005;-92
2022/09/26 05:29:35;;;;;;;;;;;;;;;16.41;60.08;98855.09;4352488;33;19984;-91
2022/09/26 05:32:00;;;;;;;;;;;;;;;16.63;60.09;98855.28;4362151;32;26385;-92
2022/09/26 05:34:25;;;;;;;;;;;;;;;16.63;60.09;98847.38;4361122;32;19999;-91
2022/09/26 05:36:51;;;;;;;;;;;;;;;16.63;60.08;98854.44;4360627;32;22436;-92
2022/09/26 05:42:00;;;;;;;;;;;;;;;16.62;60.08;98860.63;4349191;33;19986;-91
2022/09/26 05:44:26;;;;;;;;;;;;;;;16.63;60.08;98864.94;4360498;32;20039;-90
2022/09/26 05:46:51;;;;;;;;;;;;;;;16.52;60.08;98865.69;4349706;33;20642;-89
2022/09/26 05:49:17;;;;;;;;;;;;;;;16.76;60.09;98879.75;4360744;32;20035;-89
2022/09/26 05:51:42;;;;;;;;;;;;;;;16.72;60.09;98878.28;4360692;32;19993;-89
2022/09/26 05:54:07;;;;;;;;;;;;;;;16.61;60.08;98880.81;4360786;32;19988;-89
2022/09/26 05:56:36;;;;;;;;;;;;;;;16.65;60.10;98873.56;4348989;33;29411;-89
2022/09/26 05:59:01;;;;;;;;;;;;;;;16.74;60.09;98863.25;4360839;32;19994;-89
2022/09/26 06:01:26;;;;;;;;;;;;;;;16.91;60.10;98862.06;4360907;32;20267;-90
2022/09/26 06:03:51;;;;;;;;;;;;;;;16.98;60.11;98857.19;4360222;32;36481;-88
2022/09/26 06:06:17;;;;;;;;;;;;;;;16.78;60.09;98848.09;4360735;32;20022;-88
2022/09/26 06:08:42;;;;;;;;;;;;;;;16.53;60.08;98838.47;4360872;32;19986;-89
2022/09/26 06:11:11;;;;;;;;;;;;;;;16.90;60.10;98830.62;4360862;32;20311;-88
2022/09/26 06:13:36;;;;;;;;;;;;;;;16.98;60.11;98823.84;4361019;32;19991;-90
2022/09/26 06:16:05;;;;;;;;;;;;;;;16.91;60.10;98838.38;4360161;32;20268;-88
2022/09/26 06:18:36;;;;;;;;;;;;;;;16.82;60.10;98823.31;4360489;32;19984;-90
2022/09/26 06:21:02;;;;;;;;;;;;;;;16.63;60.09;98834.25;4349726;33;20552;-89
2022/09/26 06:23:27;;;;;;;;;;;;;;;16.54;60.08;98835.72;4360603;32;20332;-90
2022/09/26 06:25:52;;;;;;;;;;;;;;;16.76;60.09;98819.31;4349693;33;19984;-90
2022/09/26 06:28:18;;;;;;;;;;;;;;;16.75;60.09;98828.13;4349069;33;22562;-91
2022/09/26 06:30:43;;;;;;;;;;;;;;;16.81;60.09;98827.72;4349261;33;20023;-89
2022/09/26 06:33:08;;;;;;;;;;;;;;;16.89;60.10;98835.03;4360361;32;19995;-88
2022/09/26 06:35:33;;;;;;;;;;;;;;;17.03;60.11;98837.47;4360087;32;28601;-88
2022/09/26 06:37:59;;;;;;;;;;;;;;;17.12;60.11;98836.84;4348199;33;33463;-90
2022/09/26 06:40:24;;;;;;;;;;;;;;;17.09;60.12;98838.84;4348883;33;24485;-90
2022/09/26 06:42:49;;;;;;;;;;;;;;;17.14;60.11;98849.87;4348589;33;29243;-90
2022/09/26 06:45:15;;;;;;;;;;;;;;;17.22;60.12;98851.94;4359579;32;32360;-90
2022/09/26 06:47:40;;;;;;;;;;;;;;;17.12;60.11;98851.78;4360656;32;19989;-90
2022/09/26 06:50:05;;;;;;;;;;;;;;;17.28;60.12;98843.59;4348731;33;25230;-89
2022/09/26 06:52:33;;;;;;;;;;;;;;;17.21;60.12;98847.63;4349107;33;19980;-89
2022/09/26 06:55:02;;;;;;;;;;;;;;;17.09;60.11;98846.75;4359815;32;19991;-91
2022/09/26 06:57:28;;;;;;;;;;;;;;;17.27;60.12;98832.25;4349348;33;20360;-89
2022/09/26 06:59:54;;;;;;;;;;;;;;;17.42;60.13;98838.97;4359704;32;20019;-90
2022/09/26 07:02:19;;;;;;;;;;;;;;;17.43;60.13;98845.06;4348430;33;20003;-90
2022/09/26 07:04:45;;;;;;;;;;;;;;;17.50;60.13;98841.03;4358966;32;24552;-90
2022/09/26 07:07:10;;;;;;;;;;;;;;;17.89;60.15;98831.97;4349374;33;19994;-90
2022/09/26 07:09:35;;;;;;;;;;;;;;;17.71;60.15;98838.62;4359331;32;24892;-90
2022/09/26 07:12:00;;;;;;;;;;;;;;;17.81;60.15;98834.34;4348400;33;35869;-90
2022/09/26 07:14:26;;;;;;;;;;;;;;;17.93;60.16;98828.13;4360048;32;20038;-90
2022/09/26 07:16:52;;;;;;;;;;;;;;;17.93;60.16;98829.91;4360299;32;19999;-90
2022/09/26 07:19:17;;;;;;;;;;;;;;;18.08;60.17;98834.84;4348986;33;19967;-90
2022/09/26 07:21:42;;;;;;;;;;;;;;;17.89;60.15;98831.12;4360165;32;20534;-89
2022/09/26 07:24:12;;;;;;;;;;;;;;;17.92;60.16;98826.44;4349280;33;20014;-90
2022/09/26 07:26:38;;;;;;;;;;;;;;;18.16;60.17;98828.16;4360061;32;19998;-91
2022/09/26 07:29:03;;;;;;;;;;;;;;;18.18;60.17;98837.59;4347757;33;33243;-91
2022/09/26 07:31:29;;;;;;;;;;;;;;;18.31;60.17;98837.50;4349127;33;19992;-91
2022/09/26 07:33:54;;;;;;;;;;;;;;;18.44;60.18;98848.72;4349130;33;20002;-91
2022/09/26 07:36:19;;;;;;;;;;;;;;;18.32;60.18;98854.97;4360280;32;19994;-91
2022/09/26 07:38:48;;;;;;;;;;;;;;;18.24;60.18;98852.97;4360245;32;19994;-91
2022/09/26 07:41:13;;;;;;;;;;;;;;;18.21;60.16;98855.81;4360296;32;20003;-91
2022/09/26 07:43:39;;;;;;;;;;;;;;;18.30;60.17;98862.16;4360273;32;20235;-90
2022/09/26 07:51:32;;;;;;;;;;;;;;;18.44;60.18;98872.44;4358444;32;20003;-90
2022/09/26 07:53:57;;;;;;;;;;;;;;;18.32;60.18;98876.06;4359057;32;19991;-91
2022/09/26 07:56:22;;;;;;;;;;;;;;;17.99;60.16;98876.88;4348966;33;19990;-90
2022/09/26 07:58:49;;;;;;;;;;;;;;;17.93;60.16;98879.94;4348862;33;20233;-90
2022/09/26 08:01:14;;;;;;;;;;;;;;;17.86;60.16;98868.22;4348940;33;20006;-90
2022/09/26 08:03:40;;;;;;;;;;;;;;;17.75;60.15;98876.94;4359955;32;20038;-89
2022/09/26 08:06:06;;;;;;;;;;;;;;;17.61;60.14;98875.28;4359931;32;19994;-89
2022/09/26 08:08:31;;;;;;;;;;;;;;;17.77;60.14;98872.37;4360107;32;19980;-89
2022/09/26 08:10:56;;;;;;;;;;;;;;;17.40;60.13;98871.63;4359372;32;28729;-89
2022/09/26 08:13:22;;;;;;;;;;;;;;;17.35;60.13;98873.75;4360253;32;19997;-91
2022/09/26 08:15:48;;;;;;;;;;;;;;;17.40;60.13;98875.09;4349366;33;19994;-91
2022/09/26 08:18:13;;;;;;;;;;;;;;;17.35;60.13;98868.50;4360718;32;20890;-91
2022/09/26 08:20:38;;;;;;;;;;;;;;;17.54;60.13;98867.97;4350600;33;29052;-91
2022/09/26 08:23:03;;;;;;;;;;;;;;;17.74;60.15;98876.09;4358027;33;22720;-92
2022/09/26 08:25:29;;;;;;;;;;;;;;;17.92;60.16;98884.38;4375243;32;20023;-92
2022/09/26 08:27:58;;;;;;;;;;;;;;;17.97;60.16;98876.97;4371467;32;33321;-91
2022/09/26 08:30:24;;;;;;;;;;;;;;;17.98;60.16;98868.13;4357091;33;19983;-92
2022/09/26 08:32:52;;;;;;;;;;;;;;;18.17;60.17;98869.31;4361266;32;20032;-91
2022/09/26 08:35:18;;;;;;;;;;;;;;;18.24;60.17;98873.19;4348842;33;20098;-92
2022/09/26 08:37:43;;;;;;;;;;;;;;;18.05;60.16;98876.41;4347039;33;23942;-92
2022/09/26 08:40:09;;;;;;;;;;;;;;;17.98;60.16;98883.94;4348197;33;22608;-91
2022/09/26 08:42:34;;;;;;;;;;;;;;;17.80;60.15;98882.69;4359451;32;20023;-93
2022/09/26 08:48:11;;;;;;;;;;;;;;;17.70;60.14;98882.50;4348761;33;20026;-93
2022/09/26 08:50:58;;;;;;;;;;;;;;;17.59;60.13;98884.25;4359555;32;19991;-93
2022/09/26 08:53:27;;;;;;;;;;;;;;;17.72;60.15;98874.50;4348400;32;20038;-93
2022/09/26 08:55:52;;;;;;;;;;;;;;;18.00;60.15;98874.13;4359432;32;19994;-93
2022/09/26 08:58:37;;;;;;;;;;;;;;;17.99;60.16;98877.72;4370254;32;19959;-90
2022/09/26 09:01:03;;;;;;;;;;;;;;;18.02;60.16;98874.00;4355505;32;19997;-92
2022/09/26 09:03:44;;;;;;;;;;;;;;;17.91;60.15;98880.06;4360458;32;19991;-93
2022/09/26 09:06:10;;;;;;;;;;;;;;;18.03;60.16;98886.22;4361362;32;19994;-93
2022/09/26 09:08:42;;;;;;;;;;;;;;;18.37;60.18;98881.81;4350338;33;19980;-93
2022/09/26 09:11:07;;;;;;;;;;;;;;;18.50;60.19;98893.06;4361689;32;20006;-93
2022/09/26 09:13:47;;;;;;;;;;;;;;;18.57;60.19;98889.00;4350197;33;19980;-92
2022/09/26 09:16:13;;;;;;;;;;;;;;;18.70;60.20;98883.66;4350306;33;20067;-90
2022/09/26 09:18:41;;;;;;;;;;;;;;;18.78;60.21;98883.03;4361446;32;20320;-90
2022/09/26 09:21:06;;;;;;;;;;;;;;;18.94;60.21;98880.84;4348938;33;20022;-90
2022/09/26 09:23:37;;;;;;;;;;;;;;;19.03;60.22;98885.38;4350403;33;20250;-91
2022/09/26 09:26:16;;;;;;;;;;;;;;;19.09;60.21;98878.75;4350284;33;19983;-90
2022/09/26 09:29:01;;;;;;;;;;;;;;;18.77;60.20;98884.00;4361205;32;20324;-90
2022/09/26 09:31:27;;;;;;;;;;;;;;;18.83;60.20;98871.16;4350365;33;20006;-89
2022/09/26 09:33:54;;;;;;;;;;;;;;;18.77;60.21;98869.00;4360930;32;20345;-91
2022/09/26 09:36:24;;;;;;;;;;;;;;;18.95;60.21;98870.19;4361640;32;19995;-91
2022/09/26 09:38:50;;;;;;;;;;;;;;;19.07;60.21;98865.69;4350480;33;20030;-90
2022/09/26 09:41:15;;;;;;;;;;;;;;;19.04;60.21;98859.84;4364384;32;23576;-89
2022/09/26 09:43:47;;;;;;;;;;;;;;;19.26;60.23;98857.97;4350098;33;20018;-89
2022/09/26 09:46:17;;;;;;;;;;;;;;;19.40;60.24;98848.06;4361430;32;20039;-90
2022/09/26 09:48:45;;;;;;;;;;;;;;;19.60;60.24;98847.28;4361511;32;19971;-88
2022/09/26 09:51:10;;;;;;;;;;;;;;;19.31;60.23;98842.59;4360939;32;19995;-90
2022/09/26 09:53:35;;;;;;;;;;;;;;;19.46;60.23;98839.66;4361179;32;19983;-88
2022/09/26 09:56:09;;;;;;;;;;;;;;;19.58;60.24;98839.50;4350026;33;19997;-89
2022/09/26 09:58:41;;;;;;;;;;;;;;;19.75;60.25;98838.09;4361227;32;20031;-88
2022/09/26 10:01:08;;;;;;;;;;;;;;;19.98;60.26;98830.03;4361201;32;20336;-90
2022/09/26 10:03:33;;;;;;;;;;;;;;;19.75;60.25;98842.53;4350296;33;19991;-91
2022/09/26 10:05:59;;;;;;;;;;;;;;;19.86;60.26;98837.16;4349775;33;20002;-92
2022/09/26 10:08:51;;;;;;;;;;;;;;;20.01;60.26;98835.03;4361045;32;19979;-91
2022/09/26 10:11:27;;;;;;;;;;;;;;;20.21;60.27;98827.09;4348665;32;20055;-90
2022/09/26 10:13:54;;;;;;;;;;;;;;;20.63;60.31;98818.22;4360943;32;19995;-90
2022/09/26 10:16:19;;;;;;;;;;;;;;;20.75;60.31;98823.25;4349189;33;19990;-90
2022/09/26 10:19:12;;;;;;;;;;;;;;;20.87;60.30;98828.44;4360410;32;25130;-91
2022/09/26 10:21:46;;;;;;;;;;;;;;;21.14;60.32;98824.16;4349222;33;19994;-90
2022/09/26 10:24:33;;;;;;;;;;;;;;;21.12;60.32;98833.22;4361252;32;19995;-91
2022/09/26 10:27:12;;;;;;;;;;;;;;;20.61;60.29;98836.03;4349738;33;19998;-90
2022/09/26 10:29:38;;;;;;;;;;;;;;;20.48;60.30;98841.56;4360860;32;19975;-91
2022/09/26 10:32:03;;;;;;;;;;;;;;;20.39;60.28;98835.25;4361219;32;20006;-90
2022/09/26 10:34:29;;;;;;;;;;;;;;;20.42;60.29;98834.16;4350096;33;20015;-91
2022/09/26 10:36:57;;;;;;;;;;;;;;;20.73;60.30;98848.16;4349937;33;20356;-91
2022/09/26 10:42:18;;;;;;;;;;;;;;;20.92;60.31;98850.03;4359386;32;19998;-91
2022/09/26 10:44:45;;;;;;;;;;;;;;;20.84;60.30;98842.78;4357011;32;19963;-90
2022/09/26 10:47:14;;;;;;;;;;;;;;;20.73;60.30;98848.16;4372880;32;20045;-90
2022/09/26 10:49:39;;;;;;;;;;;;;;;20.59;60.29;98838.00;4362137;32;19998;-90
2022/09/26 10:52:07;;;;;;;;;;;;;;;20.72;60.31;98841.22;4360722;32;20590;-90
2022/09/26 10:54:40;;;;;;;;;;;;;;;21.07;60.32;98828.34;4349657;33;19984;-90
2022/09/26 10:57:08;;;;;;;;;;;;;;;21.28;60.33;98838.81;4360617;32;20498;-90
2022/09/26 10:59:35;;;;;;;;;;;;;;;21.33;60.34;98839.25;4362584;32;20299;-90
2022/09/26 11:02:02;;;;;;;;;;;;;;;21.30;60.33;98852.75;4364640;32;19987;-91
2022/09/26 11:07:19;;;;;;;;;;;;;;;21.22;60.33;98846.44;4349618;33;20280;-90
2022/09/26 11:09:45;;;;;;;;;;;;;;;21.22;60.33;98847.28;4361278;32;19999;-89
2022/09/26 11:12:24;;;;;;;;;;;;;;;21.07;60.32;98854.81;4361595;32;20553;-91
2022/09/26 11:14:52;;;;;;;;;;;;;;;21.01;60.33;98857.13;4362245;32;19974;-92
2022/09/26 11:17:18;;;;;;;;;;;;;;;21.05;60.32;98862.00;4370309;32;19959;-89
2022/09/26 11:19:47;;;;;;;;;;;;;;;21.18;60.33;98856.47;4375916;32;20010;-88
2022/09/26 11:22:24;;;;;;;;;;;;;;;21.52;60.35;98854.28;4375597;32;19987;-91
2022/09/26 11:25:10;;;;;;;;;;;;;;;21.86;60.36;98849.38;4372607;32;19963;-92
2022/09/26 11:27:43;;;;;;;;;;;;;;;22.05;60.37;98845.88;4349279;33;19971;-91
2022/09/26 11:30:12;;;;;;;;;;;;;;;21.97;60.37;98843.91;4360665;32;19963;-90
2022/09/26 11:32:44;;;;;;;;;;;;;;;22.11;60.38;98847.12;4360543;32;19963;-91
2022/09/26 11:35:16;;;;;;;;;;;;;;;22.09;60.37;98841.97;4360704;32;20011;-91
2022/09/26 11:38:04;;;;;;;;;;;;;;;22.32;60.38;98835.31;4360619;32;20273;-92
2022/09/26 11:40:41;;;;;;;;;;;;;;;22.40;60.39;98833.75;4361268;32;19984;-93
2022/09/26 11:43:25;;;;;;;;;;;;;;;22.60;60.40;98830.84;4349879;33;19979;-92
2022/09/26 11:46:03;;;;;;;;;;;;;;;23.04;60.42;98838.19;4349642;33;20062;-92
2022/09/26 11:48:31;;;;;;;;;;;;;;;22.94;60.42;98840.88;4360757;32;19987;-92
2022/09/26 11:51:16;;;;;;;;;;;;;;;22.85;60.42;98833.81;4349535;33;20335;-90
2022/09/26 11:53:51;;;;;;;;;;;;;;;22.83;60.42;98839.28;4349222;33;19983;-91
2022/09/26 11:56:35;;;;;;;;;;;;;;;22.74;60.42;98834.00;4360471;32;20018;-91
2022/09/26 11:59:21;;;;;;;;;;;;;;;22.26;60.38;98832.44;4349106;33;20328;-90
2022/09/26 12:01:46;;;;;;;;;;;;;;;22.69;60.41;98834.44;4345761;32;20076;-92
2022/09/26 12:04:31;;;;;;;;;;;;;;;22.70;60.41;98841.41;4349613;33;20031;-93
2022/09/26 12:07:03;;;;;;;;;;;;;;;23.20;60.44;98833.03;4348976;33;20340;-92
2022/09/26 12:09:34;;;;;;;;;;;;;;;23.12;60.44;98825.81;4349398;33;19990;-91
2022/09/26 12:11:59;;;;;;;;;;;;;;;;;;4360077;32;19995;-92
2022/09/26 12:14:27;;;;;;;;;;;;;;;23.18;60.43;98811.09;4348953;33;19999;-93
2022/09/26 12:16:55;;;;;;;;;;;;;;;23.24;60.44;98803.38;4348465;33;20344;-91
2022/09/26 12:19:28;;;;;;;;;;;;;;;22.41;60.41;98808.91;4360485;32;20018;-92
2022/09/26 12:24:52;;;;;;;;;;;;;;;22.23;60.38;98791.09;4348249;33;19982;-91
2022/09/26 12:27:36;;;;;;;;;;;;;;;22.01;60.37;98791.47;4348145;33;20396;-92
2022/09/26 12:30:07;;;;;;;;;;;;;;;22.29;60.39;98790.53;4351385;33;19964;-90
2022/09/26 12:32:35;;;;;;;;;;;;;;;22.04;60.39;98791.22;4373758;32;19960;-92
2022/09/26 12:35:03;;;;;;;;;;;;;;;22.27;60.40;98786.38;4352052;33;19979;-91
2022/09/26 12:37:58;;;;;;;;;;;;;;;22.30;60.39;98775.47;4359567;32;19995;-92
2022/09/26 12:40:23;;;;;;;;;;;;;;;22.61;60.41;98786.59;4346002;33;19980;-91
2022/09/26 12:42:51;;;;;;;;;;;;;;;22.71;60.41;98787.38;4360984;32;19967;-91
2022/09/26 12:45:21;;;;;;;;;;;;;;;22.64;60.41;98776.53;4361067;32;20483;-93
2022/09/26 12:48:21;;;;;;;;;;;;;;;22.72;60.41;98780.28;4350000;33;20396;-93
2022/09/26 12:50:59;;;;;;;;;;;;;;;22.72;60.41;98780.28;4332580;33;19956;-90
2022/09/26 12:53:44;;;;;;;;;;;;;;;22.65;60.41;98770.22;4346295;33;19993;-90
2022/09/26 12:56:11;;;;;;;;;;;;;;;22.34;60.40;98767.06;4350009;33;19983;-91
2022/09/26 12:58:50;;;;;;;;;;;;;;;22.21;60.39;98769.22;4361150;32;20009;-92
2022/09/26 13:01:36;;;;;;;;;;;;;;;22.28;60.40;98772.97;4361066;32;20007;-92
2022/09/26 13:04:16;;;;;;;;;;;;;;;22.35;60.40;98768.75;4349603;33;19981;-93
2022/09/26 13:06:42;;;;;;;;;;;;;;;22.45;60.40;98773.97;4360445;32;20625;-91
2022/09/26 13:09:25;;;;;;;;;;;;;;;22.45;60.40;98778.44;4349653;33;20022;-92
2022/09/26 13:11:52;;;;;;;;;;;;;;;22.36;60.40;98770.41;4349602;33;19990;-91
2022/09/26 13:14:37;;;;;;;;;;;;;;;22.11;60.39;98780.84;4349910;33;20010;-91
2022/09/26 13:17:05;;;;;;;;;;;;;;;21.96;60.38;98772.50;4349628;33;20005;-92
2022/09/26 13:19:34;;;;;;;;;;;;;;;22.00;60.38;98765.91;4349619;33;19979;-91
2022/09/26 13:22:04;;;;;;;;;;;;;;;21.90;60.38;98770.44;4360761;32;19997;-92